sensor_id;sensor_type;location;lat;lon;timestamp;pressure;altitude;pressure_sealevel;temperature
77385;BMP280;66444;49.680;18.538;2023-06-14T00:02:05;97255.05619803962;;;9.32176797115244
77385;BMP280;66444;49.680;18.538;2023-06-14T00:07:17;97262.47480742942;;;9.2657937199343
77385;BMP280;66444;49.680;18.538;2023-06-14T00:12:24;97263.14293801638;;;9.235262013319879
77385;BMP280;66444;49.680;18.538;2023-06-14T00:17:30;97259.1712220259;;;9.174197971448303
77385;BMP280;66444;49.680;18.538;2023-06-14T00:22:37;97247.67927629525;;;9.133488144539296
77385;BMP280;66444;49.680;18.538;2023-06-14T00:27:44;97249.67888377662;;;9.041889671934769
77385;BMP280;66444;49.680;18.538;2023-06-14T00:32:51;97249.57119776325;;;9.00626753438264
77385;BMP280;66444;49.680;18.538;2023-06-14T00:37:58;97252.33854389071;;;8.919755441462621
77385;BMP280;66444;49.680;18.538;2023-06-14T00:43:05;97241.95272231422;;;8.868865189235658
77385;BMP280;66444;49.680;18.538;2023-06-14T00:48:11;97247.03583246679;;;8.797617858229206
77385;BMP280;66444;49.680;18.538;2023-06-14T00:53:20;97235.7650916789;;;8.70601247055456
77385;BMP280;66444;49.680;18.538;2023-06-14T00:58:27;97247.91717326987;;;8.716190940095112
77385;BMP280;66444;49.680;18.538;2023-06-14T01:03:34;97239.29551490374;;;8.624583876039832
77385;BMP280;66444;49.680;18.538;2023-06-14T01:08:43;97242.60653040574;;;8.594047768926249
77385;BMP280;66444;49.680;18.538;2023-06-14T01:13:57;97241.27487635189;;;8.53297492605634
77385;BMP280;66444;49.680;18.538;2023-06-14T01:19:09;97241.93373896425;;;8.502438190300017
77385;BMP280;66444;49.680;18.538;2023-06-14T01:24:18;97233.53846080981;;;8.482080250047147
77385;BMP280;66444;49.680;18.538;2023-06-14T01:29:30;97237.29166589557;;;8.471901244996115
77385;BMP280;66444;49.680;18.538;2023-06-14T01:34:37;97243.2500776995;;;8.441364090144635
77385;BMP280;66444;49.680;18.538;2023-06-14T01:39:44;97237.06013179639;;;8.400647557713091
77385;BMP280;66444;49.680;18.538;2023-06-14T01:44:53;97240.36713832179;;;8.370109913917258
77385;BMP280;66444;49.680;18.538;2023-06-14T01:50:01;97233.73131893438;;;8.309033997682855
77385;BMP280;66444;49.680;18.538;2023-06-14T01:55:09;97237.24597828624;;;8.227598138852045
77385;BMP280;66444;49.680;18.538;2023-06-14T02:00:17;97240.63631001179;;;8.110531481169165
77385;BMP280;66444;49.680;18.538;2023-06-14T02:05:25;97243.81605818137;;;8.044362008245661
77385;BMP280;66444;49.680;18.538;2023-06-14T02:10:32;97249.9667548291;;;7.962921306537464
77385;BMP280;66444;49.680;18.538;2023-06-14T02:15:39;97244.67066774929;;;7.962921306537464
77385;BMP280;66444;49.680;18.538;2023-06-14T02:20:51;97244.0195246058;;;7.993461744301021
77385;BMP280;66444;49.680;18.538;2023-06-14T02:25:58;97234.72973005916;;;7.932380659226328
77385;BMP280;66444;49.680;18.538;2023-06-14T02:31:05;97246.86980981303;;;7.942560898279771
77385;BMP280;66444;49.680;18.538;2023-06-14T02:36:12;97240.14874092012;;;7.968011394049972
77385;BMP280;66444;49.680;18.538;2023-06-14T02:41:19;97236.2780085996;;;7.942560898279771
77385;BMP280;66444;49.680;18.538;2023-06-14T02:46:26;97237.37763132583;;;7.932380659226328
77385;BMP280;66444;49.680;18.538;2023-06-14T02:51:33;97236.0307613747;;;7.871298735961318
77385;BMP280;66444;49.680;18.538;2023-06-14T02:56:40;97230.73549163807;;;7.871298735961318
77385;BMP280;66444;49.680;18.538;2023-06-14T03:01:47;97239.9018038123;;;7.8967496391851455
77385;BMP280;66444;49.680;18.538;2023-06-14T03:06:54;97243.77289769024;;;7.922200396889821
77385;BMP280;66444;49.680;18.538;2023-06-14T03:12:01;97244.22185588122;;;7.942560898279771
77385;BMP280;66444;49.680;18.538;2023-06-14T03:17:08;97243.12228194818;;;7.95274111405015
77385;BMP280;66444;49.680;18.538;2023-06-14T03:22:20;97248.41827821019;;;7.95274111405015
77385;BMP280;66444;49.680;18.538;2023-06-14T03:27:27;97250.3351622711;;;8.069811921939253
77385;BMP280;66444;49.680;18.538;2023-06-14T03:32:34;97252.95973197214;;;8.400647557713091
77385;BMP280;66444;49.680;18.538;2023-06-14T03:37:41;97244.3841822305;;;8.797617858229206
77385;BMP280;66444;49.680;18.538;2023-06-14T03:42:48;97257.62477700622;;;9.164020549645647
77385;BMP280;66444;49.680;18.538;2023-06-14T03:48:00;97268.19842784693;;;9.4082722467836
77385;BMP280;66444;49.680;18.538;2023-06-14T03:53:08;97274.99018418734;;;9.662686837092043
77385;BMP280;66444;49.680;18.538;2023-06-14T03:58:15;97276.92983585737;;;9.815328606357799
77385;BMP280;66444;49.680;18.538;2023-06-14T04:03:25;97278.86051611463;;;9.967965136934072
77385;BMP280;66444;49.680;18.538;2023-06-14T04:08:30;97287.82771195163;;;10.201997642451897
77385;BMP280;66444;49.680;18.538;2023-06-14T04:13:39;97282.96507829042;;;10.380057602236047
77385;BMP280;66444;49.680;18.538;2023-06-14T04:18:49;97287.17887298817;;;10.547936176275835
77385;BMP280;66444;49.680;18.538;2023-06-14T04:23:54;97286.14707300861;;;10.751416858611629
77385;BMP280;66444;49.680;18.538;2023-06-14T04:28:59;97282.70036941189;;;10.904021258559078
77385;BMP280;66444;49.680;18.538;2023-06-14T04:34:04;97275.22457308382;;;10.959974892623723
77385;BMP280;66444;49.680;18.538;2023-06-14T04:39:14;97283.87211621062;;;11.087139623425902
77385;BMP280;66444;49.680;18.538;2023-06-14T04:44:19;97281.0962155685;;;11.20921434238553
77385;BMP280;66444;49.680;18.538;2023-06-14T04:49:33;97288.1163753535;;;11.290595625713468
77385;BMP280;66444;49.680;18.538;2023-06-14T04:54:38;97292.7456483649;;;11.321113222790881
77385;BMP280;66444;49.680;18.538;2023-06-14T04:59:43;97293.46629784726;;;11.483870201511309
77385;BMP280;66444;49.680;18.538;2023-06-14T05:04:53;97292.70407338244;;;11.672050527948887
77385;BMP280;66444;49.680;18.538;2023-06-14T05:09:57;97294.59118355242;;;11.860222885757684
77385;BMP280;66444;49.680;18.538;2023-06-14T05:15:09;97304.30152242907;;;12.170435590902343
77385;BMP280;66444;49.680;18.538;2023-06-14T05:20:17;97312.5568743435;;;12.54164527687244
77385;BMP280;66444;49.680;18.538;2023-06-14T05:25:22;97313.7223589644;;;12.79588058758527
77385;BMP280;66444;49.680;18.538;2023-06-14T05:30:27;97317.73492995105;;;12.928077198239043
77385;BMP280;66444;49.680;18.538;2023-06-14T05:35:32;97315.47669035438;;;12.948414789093658
77385;BMP280;66444;49.680;18.538;2023-06-14T05:40:36;97330.72446735356;;;12.943330400111154
77385;BMP280;66444;49.680;18.538;2023-06-14T05:45:41;97325.02638089278;;;12.95858354959637
77385;BMP280;66444;49.680;18.538;2023-06-14T05:50:46;97327.1836172966;;;13.131448915833607
77385;BMP280;66444;49.680;18.538;2023-06-14T05:55:51;97332.624591539;;;13.202626816742121
77385;BMP280;66444;49.680;18.538;2023-06-14T06:00:56;97326.51288501259;;;13.197542718797923
77385;BMP280;66444;49.680;18.538;2023-06-14T06:06:00;97336.42581103588;;;13.192458615032956
77385;BMP280;66444;49.680;18.538;2023-06-14T06:11:07;97330.26431917591;;;13.151785575365647
77385;BMP280;66444;49.680;18.538;2023-06-14T06:16:11;97344.02775551267;;;13.172122141765431
77385;BMP280;66444;49.680;18.538;2023-06-14T06:21:16;97345.5175307809;;;13.146701419213787
77385;BMP280;66444;49.680;18.538;2023-06-14T06:26:21;97351.01034458917;;;13.253467476041987
77385;BMP280;66444;49.680;18.538;2023-06-14T06:31:26;97353.65551685983;;;13.517829521326348
77385;BMP280;66444;49.680;18.538;2023-06-14T06:36:31;97363.24281105988;;;13.863509985664859
77385;BMP280;66444;49.680;18.538;2023-06-14T06:41:36;97365.30521560443;;;14.371814715256914
77385;BMP280;66444;49.680;18.538;2023-06-14T06:46:43;97363.83849947914;;;14.910554177500307
77385;BMP280;66444;49.680;18.538;2023-06-14T06:52:00;97370.60603254901;;;15.327270027110353
77385;BMP280;66444;49.680;18.538;2023-06-14T06:57:06;97366.8865739642;;;15.550857518566772
77385;BMP280;66444;49.680;18.538;2023-06-14T07:02:11;97373.95468527213;;;16.058968998724595
77385;BMP280;66444;49.680;18.538;2023-06-14T07:07:17;97381.68544757628;;;16.465416273334995
77385;BMP280;66444;49.680;18.538;2023-06-14T07:12:21;97388.57983644887;;;16.368888418748973
77385;BMP280;66444;49.680;18.538;2023-06-14T07:17:26;97388.51822387034;;;16.048807339556515
77385;BMP280;66444;49.680;18.538;2023-06-14T07:22:31;97379.23488563922;;;15.774433741020038
77385;BMP280;66444;49.680;18.538;2023-06-14T07:27:36;97386.86151414759;;;15.682972102984786
77385;BMP280;66444;49.680;18.538;2023-06-14T07:32:41;97389.0861225177;;;15.520368978753686
77385;BMP280;66444;49.680;18.538;2023-06-14T07:37:46;97389.74055620717;;;15.312025015056133
77385;BMP280;66444;49.680;18.538;2023-06-14T07:42:57;97388.88489554421;;;15.164653864363208
77385;BMP280;66444;49.680;18.538;2023-06-14T07:48:02;97384.2250062241;;;15.063015735847875
77385;BMP280;66444;49.680;18.538;2023-06-14T07:53:08;97393.1466612612;;;15.24596269079484
77385;BMP280;66444;49.680;18.538;2023-06-14T07:58:13;97394.41142480155;;;15.449228237615898
77385;BMP280;66444;49.680;18.538;2023-06-14T08:03:19;97392.08653437781;;;15.398412724025548
77385;BMP280;66444;49.680;18.538;2023-06-14T08:08:23;97392.26762048017;;;15.789677164005116
77385;BMP280;66444;49.680;18.538;2023-06-14T08:13:28;97393.14309926792;;;16.150422883499413
77385;BMP280;66444;49.680;18.538;2023-06-14T08:18:34;97392.43369167148;;;16.607664018450304
77385;BMP280;66444;49.680;18.538;2023-06-14T08:23:49;97389.705838244;;;17.10549518894404
77385;BMP280;66444;49.680;18.538;2023-06-14T08:28:53;97396.205578992;;;17.237563463347033
77385;BMP280;66444;49.680;18.538;2023-06-14T08:33:58;97403.88316344301;;;17.252801857190207
77385;BMP280;66444;49.680;18.538;2023-06-14T08:39:03;97411.90258132311;;;17.430579247884452
77385;BMP280;66444;49.680;18.538;2023-06-14T08:44:08;97396.84559729947;;;17.63374467752874
77385;BMP280;66444;49.680;18.538;2023-06-14T08:49:13;97398.28111066717;;;17.85721589336172
77385;BMP280;66444;49.680;18.538;2023-06-14T08:54:21;97398.20512778514;;;17.999418981559575
77385;BMP280;66444;49.680;18.538;2023-06-14T08:59:27;97402.87906287801;;;17.88768836786039
77385;BMP280;66444;49.680;18.538;2023-06-14T09:04:33;97399.69608026584;;;18.080675840191542
77385;BMP280;66444;49.680;18.538;2023-06-14T09:09:39;97410.67247680617;;;17.654060708265753
77385;BMP280;66444;49.680;18.538;2023-06-14T09:14:44;97411.37832939248;;;17.801349145872518
77385;BMP280;66444;49.680;18.538;2023-06-14T09:19:49;97410.79402547042;;;18.172088024998082
77385;BMP280;66444;49.680;18.538;2023-06-14T09:24:54;97411.76217521579;;;18.446313263848424
77385;BMP280;66444;49.680;18.538;2023-06-14T09:29:59;97405.94990572962;;;18.943937936844303
77385;BMP280;66444;49.680;18.538;2023-06-14T09:35:10;97413.3093656608;;;19.279041418712588
77385;BMP280;66444;49.680;18.538;2023-06-14T09:40:17;97401.46399797754;;;20.09638445568271
77385;BMP280;66444;49.680;18.538;2023-06-14T09:45:25;97401.32025378321;;;20.669957469729706
77385;BMP280;66444;49.680;18.538;2023-06-14T09:50:31;97397.44081873547;;;20.6801085351035
77385;BMP280;66444;49.680;18.538;2023-06-14T09:55:36;97402.58085716993;;;19.852720329957084
77385;BMP280;66444;49.680;18.538;2023-06-14T10:00:43;97399.57472658387;;;19.492275887494905
77385;BMP280;66444;49.680;18.538;2023-06-14T10:05:55;97412.8021178135;;;19.70550008844584
77385;BMP280;66444;49.680;18.538;2023-06-14T10:11:02;97397.41822137585;;;19.675040116952733
77385;BMP280;66444;49.680;18.538;2023-06-14T10:16:10;97386.37854457083;;;20.12176536419429
77385;BMP280;66444;49.680;18.538;2023-06-14T10:21:22;97382.04125054939;;;20.182678950903938
77385;BMP280;66444;49.680;18.538;2023-06-14T10:26:40;97381.74715700654;;;19.857796802697703
77385;BMP280;66444;49.680;18.538;2023-06-14T10:31:57;97375.24002088446;;;20.33495925059542
77385;BMP280;66444;49.680;18.538;2023-06-14T10:37:11;97370.74238270421;;;19.99993567620404
77385;BMP280;66444;49.680;18.538;2023-06-14T10:42:17;97376.54750397037;;;19.411044919630513
77385;BMP280;66444;49.680;18.538;2023-06-14T10:47:24;97367.53443936621;;;19.81718485779129
77385;BMP280;66444;49.680;18.538;2023-06-14T10:52:38;97370.18924579585;;;20.35526289474219
77385;BMP280;66444;49.680;18.538;2023-06-14T10:57:50;97371.34617465454;;;20.111613018251955
77385;BMP280;66444;49.680;18.538;2023-06-14T11:03:21;97368.39759159171;;;20.02024085703306
77385;BMP280;66444;49.680;18.538;2023-06-14T11:09:57;97371.83179887512;;;20.29435168290511
77385;BMP280;66444;49.680;18.538;2023-06-14T11:15:18;97361.4235849768;;;20.944028062466533
77385;BMP280;66444;49.680;18.538;2023-06-14T11:20:25;97359.76112979645;;;21.0049303336069
77385;BMP280;66444;49.680;18.538;2023-06-14T11:25:31;97362.77387073632;;;20.62935297540389
77385;BMP280;66444;49.680;18.538;2023-06-14T11:30:36;97367.83996690116;;;20.375566445756704
77385;BMP280;66444;49.680;18.538;2023-06-14T11:35:42;97362.66690528377;;;20.233439632877708
77385;BMP280;66444;49.680;18.538;2023-06-14T11:40:47;97354.20942850539;;;20.21313542993739
77385;BMP280;66444;49.680;18.538;2023-06-14T11:45:53;97359.22986046228;;;19.95932503514923
77385;BMP280;66444;49.680;18.538;2023-06-14T11:51:03;97349.07986155267;;;20.933877602452412
77385;BMP280;66444;49.680;18.538;2023-06-14T11:56:09;97352.40190258008;;;21.207931850478055
77385;BMP280;66444;49.680;18.538;2023-06-14T12:01:14;97343.04411371762;;;20.857748410198838
77385;BMP280;66444;49.680;18.538;2023-06-14T12:06:25;97335.9957847401;;;20.487234311597422
77385;BMP280;66444;49.680;18.538;2023-06-14T12:11:32;97346.44333819038;;;21.096282168710605
77385;BMP280;66444;49.680;18.538;2023-06-14T12:16:39;97339.60703511072;;;21.410924054123463
77385;BMP280;66444;49.680;18.538;2023-06-14T12:21:46;97338.12336935406;;;21.0049303336069
77385;BMP280;66444;49.680;18.538;2023-06-14T12:26:57;97339.75834183366;;;21.339877842226997
77385;BMP280;66444;49.680;18.538;2023-06-14T12:32:03;97336.58490457085;;;22.36486266059801
77385;BMP280;66444;49.680;18.538;2023-06-14T12:37:08;97337.1668881683;;;22.730146367941053
77385;BMP280;66444;49.680;18.538;2023-06-14T12:42:13;97327.62791807349;;;21.583460104698315
77385;BMP280;66444;49.680;18.538;2023-06-14T12:47:19;97329.3103464167;;;21.52256579636596
77385;BMP280;66444;49.680;18.538;2023-06-14T12:52:24;97328.26751131203;;;23.26787024619989
77385;BMP280;66444;49.680;18.538;2023-06-14T12:57:29;97318.20246015633;;;24.343121796334163
77385;BMP280;66444;49.680;18.538;2023-06-14T13:02:34;97324.27281452848;;;24.81980056185275
77385;BMP280;66444;49.680;18.538;2023-06-14T13:07:39;97320.51596845294;;;23.88667903766036
77385;BMP280;66444;49.680;18.538;2023-06-14T13:12:45;97305.08234413964;;;22.841754815401508
77385;BMP280;66444;49.680;18.538;2023-06-14T13:17:50;97315.4445050187;;;23.14612717120908
77385;BMP280;66444;49.680;18.538;2023-06-14T13:22:55;97312.80858764051;;;25.17981106620282
77385;BMP280;66444;49.680;18.538;2023-06-14T13:28:06;97315.56512630671;;;26.401599715277552
77385;BMP280;66444;49.680;18.538;2023-06-14T13:33:12;97310.22761858953;;;27.38993645114824
77385;BMP280;66444;49.680;18.538;2023-06-14T13:38:18;97301.51359223401;;;28.266583243012427
77385;BMP280;66444;49.680;18.538;2023-06-14T13:43:23;97303.59266396925;;;27.308850490208716
77385;BMP280;66444;49.680;18.538;2023-06-14T13:48:29;97293.25945902972;;;27.0199696442578
77385;BMP280;66444;49.680;18.538;2023-06-14T13:53:34;97301.88938311115;;;25.580351646384223
77385;BMP280;66444;49.680;18.538;2023-06-14T13:58:39;97295.15853238317;;;25.316708768391983
77385;BMP280;66444;49.680;18.538;2023-06-14T14:03:44;97298.19575930698;;;26.7969609697815
77385;BMP280;66444;49.680;18.538;2023-06-14T14:08:49;97288.15907219432;;;27.901757187582554
77385;BMP280;66444;49.680;18.538;2023-06-14T14:13:56;97293.09746219186;;;28.742838512873277
77385;BMP280;66444;49.680;18.538;2023-06-14T14:19:01;97282.63246864341;;;29.077199777215718
77385;BMP280;66444;49.680;18.538;2023-06-14T14:24:11;97290.58649603023;;;30.12571381945163
77385;BMP280;66444;49.680;18.538;2023-06-14T14:29:16;97291.60828550052;;;30.151037160586565
77385;BMP280;66444;49.680;18.538;2023-06-14T14:34:21;97293.87555033257;;;28.45405156170018
77385;BMP280;66444;49.680;18.538;2023-06-14T14:39:26;97286.36061870953;;;27.871353654237463
77385;BMP280;66444;49.680;18.538;2023-06-14T14:44:31;97294.37114646014;;;26.07717428766191
77385;BMP280;66444;49.680;18.538;2023-06-14T14:49:36;97293.89302669984;;;24.835012867022307
77385;BMP280;66444;49.680;18.538;2023-06-14T14:54:42;97305.57942500022;;;26.006203047232702
77385;BMP280;66444;49.680;18.538;2023-06-14T14:59:47;97299.21440513807;;;26.219113345909864
77385;BMP280;66444;49.680;18.538;2023-06-14T15:04:52;97302.84674045254;;;26.279942973889412
77385;BMP280;66444;49.680;18.538;2023-06-14T15:09:57;97293.25945902972;;;27.0199696442578
77385;BMP280;66444;49.680;18.538;2023-06-14T15:15:03;97299.59853728529;;;24.764021661365405
77385;BMP280;66444;49.680;18.538;2023-06-14T15:20:12;97292.97845371437;;;23.26787024619989
77385;BMP280;66444;49.680;18.538;2023-06-14T15:25:17;97295.68630727207;;;22.598241843329742
77385;BMP280;66444;49.680;18.538;2023-06-14T15:30:23;97293.79620458435;;;21.827028956124558
77385;BMP280;66444;49.680;18.538;2023-06-14T15:35:41;97295.62003333571;;;21.370326358452438
77385;BMP280;66444;49.680;18.538;2023-06-14T15:40:46;97300.99582102035;;;21.207931850478055
77385;BMP280;66444;49.680;18.538;2023-06-14T15:45:52;97282.05696813959;;;21.207931850478055
77385;BMP280;66444;49.680;18.538;2023-06-14T15:50:57;97287.0018307865;;;21.421073419833554
77385;BMP280;66444;49.680;18.538;2023-06-14T15:56:03;97279.74454737068;;;21.877770778816192
77385;BMP280;66444;49.680;18.538;2023-06-14T16:01:08;97296.07857718012;;;21.15718234437518
77385;BMP280;66444;49.680;18.538;2023-06-14T16:06:14;97287.22117818554;;;20.55829421393573
77385;BMP280;66444;49.680;18.538;2023-06-14T16:11:19;97294.84183922125;;;20.177602850692345
77385;BMP280;66444;49.680;18.538;2023-06-14T16:16:25;97301.57718160727;;;21.96910459282808
77385;BMP280;66444;49.680;18.538;2023-06-14T16:21:30;97299.16045025247;;;23.14612717120908
77385;BMP280;66444;49.680;18.538;2023-06-14T16:26:35;97299.1269253997;;;23.78016894320026
77385;BMP280;66444;49.680;18.538;2023-06-14T16:31:41;97299.30371867416;;;22.4054512293078
77385;BMP280;66444;49.680;18.538;2023-06-14T16:36:47;97315.0599512745;;;21.319578714994712
77385;BMP280;66444;49.680;18.538;2023-06-14T16:41:53;97306.47183219288;;;21.532714905962347
77385;BMP280;66444;49.680;18.538;2023-06-14T16:46:58;97319.28100074422;;;22.466333383880556
77385;BMP280;66444;49.680;18.538;2023-06-14T16:52:04;97319.90499233038;;;23.59250205489807
77385;BMP280;66444;49.680;18.538;2023-06-14T16:57:11;97333.59762541392;;;22.47140685892664
77385;BMP280;66444;49.680;18.538;2023-06-14T17:02:17;97333.65868307442;;;21.299279494630174
77385;BMP280;66444;49.680;18.538;2023-06-14T17:07:22;97336.69665126424;;;20.527840109774843
77385;BMP280;66444;49.680;18.538;2023-06-14T17:12:29;97335.41519005738;;;20.142069986229764
77385;BMP280;66444;49.680;18.538;2023-06-14T17:17:35;97339.82608258756;;;19.776572540355847
77385;BMP280;66444;49.680;18.538;2023-06-14T17:22:50;97347.68072230347;;;19.380582922510804
77385;BMP280;66444;49.680;18.538;2023-06-14T17:27:55;97348.09605744795;;;19.025177472876386
77385;BMP280;66444;49.680;18.538;2023-06-14T17:33:01;97347.65767904074;;;18.700210388051346
77385;BMP280;66444;49.680;18.538;2023-06-14T17:38:07;97350.91169585231;;;18.507249900791795
77385;BMP280;66444;49.680;18.538;2023-06-14T17:43:22;97357.20965221956;;;18.334593919152393
77385;BMP280;66444;49.680;18.538;2023-06-14T17:48:28;97364.99777561566;;;18.20763669866137
77385;BMP280;66444;49.680;18.538;2023-06-14T17:53:34;97368.13415642804;;;18.12130371071398
77385;BMP280;66444;49.680;18.538;2023-06-14T17:58:40;97383.77094554092;;;18.314281008346008
77385;BMP280;66444;49.680;18.538;2023-06-14T18:03:45;97378.64472491428;;;18.476781687093897
77385;BMP280;66444;49.680;18.538;2023-06-14T18:08:51;97381.67800091977;;;18.532639918802307
77385;BMP280;66444;49.680;18.538;2023-06-14T18:13:56;97387.88843149458;;;18.46662556929514
77385;BMP280;66444;49.680;18.538;2023-06-14T18:19:02;97391.05871779431;;;18.34475033963099
77385;BMP280;66444;49.680;18.538;2023-06-14T18:24:07;97388.88307486325;;;18.151774369133637
77385;BMP280;66444;49.680;18.538;2023-06-14T18:29:13;97394.80544995723;;;17.88768836786039
77385;BMP280;66444;49.680;18.538;2023-06-14T18:34:19;97393.01300856759;;;17.608349508140236
77385;BMP280;66444;49.680;18.538;2023-06-14T18:39:25;97397.70075703357;;;17.389945044368506
77385;BMP280;66444;49.680;18.538;2023-06-14T18:44:32;97401.59760910989;;;17.16645026607439
77385;BMP280;66444;49.680;18.538;2023-06-14T18:49:37;97397.79036379601;;;16.963263416010886
77385;BMP280;66444;49.680;18.538;2023-06-14T18:54:43;97397.80631522444;;;16.714346832502635
77385;BMP280;66444;49.680;18.538;2023-06-14T18:59:49;97416.97684944748;;;16.485737659176813
77385;BMP280;66444;49.680;18.538;2023-06-14T19:04:54;97419.99773851421;;;16.221552378917114
77385;BMP280;66444;49.680;18.538;2023-06-14T19:10:07;97419.94863028647;;;16.043726501241327
77385;BMP280;66444;49.680;18.538;2023-06-14T19:15:14;97431.3694357303;;;15.835407118638978
77385;BMP280;66444;49.680;18.538;2023-06-14T19:20:19;97431.28750560942;;;15.657565757725388
77385;BMP280;66444;49.680;18.538;2023-06-14T19:25:25;97427.3680871525;;;15.48988022939302
77385;BMP280;66444;49.680;18.538;2023-06-14T19:30:31;97431.10583004334;;;15.337433339376002
77385;BMP280;66444;49.680;18.538;2023-06-14T19:35:36;97441.67724325083;;;15.123998892353848
77385;BMP280;66444;49.680;18.538;2023-06-14T19:40:42;97436.4918705852;;;14.8597324938979
77385;BMP280;66444;49.680;18.538;2023-06-14T19:45:47;97442.0567468045;;;14.666604787670076
77385;BMP280;66444;49.680;18.538;2023-06-14T19:50:52;97448.44443531404;;;14.549707619054242
77385;BMP280;66444;49.680;18.538;2023-06-14T19:55:58;97449.47134213425;;;14.432807371253148
77385;BMP280;66444;49.680;18.538;2023-06-14T20:01:06;97461.63936056968;;;14.371814715256914
77385;BMP280;66444;49.680;18.538;2023-06-14T20:06:14;97461.51955859504;;;14.265075550368056
77385;BMP280;66444;49.680;18.538;2023-06-14T20:11:23;97449.96589614441;;;14.188831718126313
77385;BMP280;66444;49.680;18.538;2023-06-14T20:16:31;97450.28857173937;;;14.138001769036055
77385;BMP280;66444;49.680;18.538;2023-06-14T20:21:40;97453.69142329854;;;14.107503520185128
77385;BMP280;66444;49.680;18.538;2023-06-14T20:26:48;97457.50034144774;;;14.09733739066869
77385;BMP280;66444;49.680;18.538;2023-06-14T20:32:01;97454.37536559415;;;14.041423262143507
77385;BMP280;66444;49.680;18.538;2023-06-14T20:37:10;97457.45700492508;;;14.061755754007027
77385;BMP280;66444;49.680;18.538;2023-06-14T20:42:18;97458.9540254219;;;14.036340124625713
77385;BMP280;66444;49.680;18.538;2023-06-14T20:47:27;97451.88449558272;;;13.883843292435632
77385;BMP280;66444;49.680;18.538;2023-06-14T20:52:35;97457.76473530084;;;13.711007216293364
77385;BMP280;66444;49.680;18.538;2023-06-14T20:57:43;97455.30290706226;;;13.589001228939741
77385;BMP280;66444;49.680;18.538;2023-06-14T21:02:51;97458.23221415738;;;13.502578292693943
77385;BMP280;66444;49.680;18.538;2023-06-14T21:08:00;97458.84435865284;;;13.400902096368373
77385;BMP280;66444;49.680;18.538;2023-06-14T21:13:13;97453.33809302998;;;13.294139584386722
77385;BMP280;66444;49.680;18.538;2023-06-14T21:18:22;97460.411836956;;;13.182290390040725
77385;BMP280;66444;49.680;18.538;2023-06-14T21:23:30;97458.04054817017;;;13.131448915833607
77385;BMP280;66444;49.680;18.538;2023-06-14T21:28:38;97458.33893149407;;;13.08060685954988
77385;BMP280;66444;49.680;18.538;2023-06-14T21:33:47;97453.71094542688;;;13.05010134638287
77385;BMP280;66444;49.680;18.538;2023-06-14T21:38:55;97451.27816395144;;;12.963667921116576
77385;BMP280;66444;49.680;18.538;2023-06-14T21:44:03;97448.84286108648;;;12.87723281364888
77385;BMP280;66444;49.680;18.538;2023-06-14T21:49:12;97453.22359401765;;;12.765373118640856
77385;BMP280;66444;49.680;18.538;2023-06-14T21:54:20;97448.59411149783;;;12.73486544014886
77385;BMP280;66444;49.680;18.538;2023-06-14T21:59:28;97449.30219159756;;;12.704357552109286
77385;BMP280;66444;49.680;18.538;2023-06-14T22:04:37;97447.98357332256;;;12.607747857552022
77385;BMP280;66444;49.680;18.538;2023-06-14T22:09:45;97446.08690996606;;;12.612832630705089
77385;BMP280;66444;49.680;18.538;2023-06-14T22:14:53;97449.10848790957;;;12.59757829378359